createdAt,value
2022-08-07T00:08:55.392Z,77
2022-08-07T00:18:57.506Z,78
2022-08-07T00:39:01.409Z,79
2022-08-07T00:49:03.824Z,80
2022-08-07T00:59:06.198Z,80
2022-08-07T01:09:08.659Z,81
2022-08-07T01:19:14.925Z,82
2022-08-07T01:29:13.461Z,82
2022-08-07T01:39:15.943Z,83
2022-08-07T01:49:18.194Z,84
2022-08-07T01:59:20.379Z,84
2022-08-07T02:20:03.955Z,86
2022-08-07T02:29:26.889Z,86
2022-08-07T02:39:42.756Z,87
2022-08-07T02:59:34.110Z,88
2022-08-07T03:09:42.565Z,88
2022-08-07T03:19:38.788Z,88
2022-08-07T03:29:44.712Z,89
2022-08-07T03:39:46.593Z,89
2022-08-07T03:49:47.875Z,90
2022-08-07T04:00:01.437Z,90
2022-08-07T04:09:50.133Z,91
2022-08-07T04:19:54.307Z,91
2022-08-07T04:29:58.786Z,91
2022-08-07T04:39:56.719Z,92
2022-08-07T04:50:03.731Z,92
2022-08-07T05:00:13.000Z,92
2022-08-07T05:10:04.491Z,91
2022-08-07T05:20:09.555Z,89
2022-08-07T05:30:07.105Z,87
2022-08-07T05:40:14.208Z,84
2022-08-07T05:50:10.988Z,82
2022-08-07T06:00:16.253Z,79
2022-08-07T06:10:15.235Z,76
2022-08-07T06:20:25.257Z,74
2022-08-07T06:30:23.947Z,72
2022-08-07T06:40:21.741Z,71
2022-08-07T06:50:23.693Z,69
2022-08-07T07:00:26.303Z,67
2022-08-07T07:10:28.463Z,64
2022-08-07T07:20:30.570Z,62
2022-08-07T07:30:38.164Z,61
2022-08-07T07:40:34.817Z,59
2022-08-07T07:50:39.016Z,57
2022-08-07T08:00:39.461Z,54
2022-08-07T08:10:41.422Z,51
2022-08-07T08:20:43.872Z,50
2022-08-07T08:30:50.926Z,48
2022-08-07T08:33:24.563Z,48
2022-08-07T08:40:57.985Z,47
2022-08-07T08:50:59.968Z,44
2022-08-07T09:01:02.312Z,41
2022-08-07T09:11:04.876Z,39
2022-08-07T09:21:06.870Z,37
2022-08-07T09:31:08.711Z,35
2022-08-07T09:41:10.593Z,34
2022-08-07T09:51:14.664Z,32
2022-08-07T10:01:14.803Z,32
2022-08-07T10:11:17.390Z,32
2022-08-07T10:21:20.148Z,32
2022-08-07T10:31:20.425Z,32
2022-08-07T10:41:46.126Z,32
2022-08-07T10:51:39.020Z,32
2022-08-07T11:01:35.396Z,30
2022-08-07T11:11:29.695Z,29
2022-08-07T11:21:32.238Z,29
2022-08-07T11:31:35.238Z,29
2022-08-07T11:42:00.523Z,29
2022-08-07T12:01:58.858Z,29
2022-08-07T12:11:43.191Z,28
2022-08-07T12:21:56.155Z,29
2022-08-07T12:31:52.570Z,30
2022-08-07T12:41:49.622Z,29
2022-08-07T12:51:51.595Z,29
2022-08-07T13:01:51.944Z,30
2022-08-07T13:12:00.821Z,29
2022-08-07T13:21:57.607Z,29
2022-08-07T13:32:00.015Z,29
2022-08-07T13:41:59.927Z,28
2022-08-07T13:52:05.825Z,27
2022-08-07T14:02:05.233Z,27
2022-08-07T14:12:07.489Z,28
2022-08-07T14:22:10.565Z,27
2022-08-07T14:32:12.370Z,28
2022-08-07T14:42:19.171Z,28
2022-08-07T14:52:16.748Z,29
2022-08-07T15:02:31.538Z,29
2022-08-07T15:12:25.744Z,30
2022-08-07T15:32:39.222Z,30
2022-08-07T15:42:43.043Z,30
2022-08-07T15:52:31.167Z,30
2022-08-07T16:12:34.477Z,30
2022-08-07T16:22:37.846Z,30
2022-08-07T16:32:39.489Z,30
2022-08-07T16:42:41.227Z,30
2022-08-07T16:52:51.107Z,31
2022-08-07T17:02:51.878Z,32
2022-08-07T17:12:48.124Z,32
2022-08-07T17:22:50.267Z,34
2022-08-07T17:32:53.239Z,35
2022-08-07T17:42:58.807Z,36
2022-08-07T17:52:58.889Z,36
2022-08-07T18:02:58.958Z,36
2022-08-07T18:23:04.525Z,37
2022-08-07T18:43:06.989Z,38
2022-08-07T19:23:18.068Z,41
2022-08-07T19:33:17.496Z,42
2022-08-07T19:43:21.182Z,43
2022-08-07T20:03:55.670Z,45
2022-08-07T20:33:36.493Z,48
2022-08-07T21:23:42.804Z,53
2022-08-07T21:33:44.808Z,54
2022-08-07T21:43:47.735Z,55
2022-08-07T21:53:52.573Z,56
2022-08-07T22:54:05.970Z,61
2022-08-07T23:24:09.141Z,63
2022-08-07T23:34:24.386Z,64
2022-08-07T23:44:12.388Z,65
2022-08-07T23:54:19.738Z,65
